Granada Carrier — C6LJ3 — position and weather

sailwx.info

Track history (hours):
 
Tides and Currents Weather Stations Pressure Air Temp Water Temp Dewpoint Dewpoint Depression Visibility Wind Speed Wind Dir Waves Ship Positions

Granada Carrier

Last reported at 2017-Sep-14 21:56 UTC. Time now 2017-Sep-24 15:52 UTC.
Position N 34°10' E 134°58'.
Warning: this ship's position is 9 days out of date.

Length 122 m; draft 5.3 m.

Type: Cargo ship. MMSI: 308462000.

Date/timePositionNaut miles runAvg speedWind from/ knotsBaromVisibWave heightAir tempDewpointWater temp
2017-Sep-14 21:56N 34°10' E 134°58'1417.0
2017-Sep-14 21:08N 34°23' E 135°01'416.4
2017-Sep-14 20:55N 34°26' E 135°03'716.8
2017-Sep-14 20:30N 34°32' E 135°06'815.0
2017-Sep-14 20:00N 34°39' E 135°11'1 1.8
2017-Sep-14 19:29N 34°40' E 135°11'0 0.0
2017-Sep-14 19:00N 34°40' E 135°11'0 0.0
2017-Sep-14 18:12N 34°40' E 135°11'0 0.0
2017-Sep-14 18:00N 34°40' E 135°11'0 0.0
2017-Sep-14 17:25N 34°40' E 135°11'0 0.0
2017-Sep-14 16:55N 34°40' E 135°11'0 0.0
2017-Sep-14 16:25N 34°40' E 135°11'0 0.0
2017-Sep-14 15:56N 34°40' E 135°11'0 0.0
2017-Sep-14 15:14N 34°40' E 135°11'0 0.0
2017-Sep-14 14:56N 34°40' E 135°11'0 0.0
2017-Sep-14 14:27N 34°40' E 135°11'0 0.0
2017-Sep-14 13:57N 34°40' E 135°11'0 0.0
2017-Sep-14 13:27N 34°40' E 135°11'0 0.0
2017-Sep-14 12:58N 34°40' E 135°11'0 0.0
2017-Sep-14 12:28N 34°40' E 135°11'0 0.0
2017-Sep-14 11:58N 34°40' E 135°11'0 0.0
2017-Sep-14 11:23N 34°40' E 135°11'0 0.0
2017-Sep-14 10:47N 34°40' E 135°11'0 0.0
2017-Sep-14 10:29N 34°40' E 135°11'0 0.0
2017-Sep-14 10:00N 34°40' E 135°11'0 0.0
2017-Sep-14 09:31N 34°40' E 135°11'2 4.5
2017-Sep-14 09:00N 34°37' E 135°11'714.8
2017-Sep-14 08:30N 34°31' E 135°07'1116.5
2017-Sep-14 07:52N 34°21' E 135°02'616.6
2017-Sep-14 07:30N 34°15' E 134°59'816.8
2017-Sep-14 07:00N 34°07' E 134°59'916.5
2017-Sep-14 06:29N 33°58' E 134°60'23013.1
2017-Sep-13 12:58N 34°58' E 139°29'715.3
2017-Sep-13 12:30N 35°02' E 139°36'815.8
2017-Sep-13 12:00N 35°07' E 139°44'714.6
2017-Sep-13 11:31N 35°14' E 139°46'611.8
2017-Sep-13 11:01N 35°19' E 139°43'612.7
2017-Sep-13 10:30N 35°25' E 139°43'4 8.6
2017-Sep-13 10:00N 35°29' E 139°39'0 0.2
2017-Sep-13 09:30N 35°29' E 139°39'0 0.0
2017-Sep-13 09:00N 35°29' E 139°39'0 0.0
2017-Sep-13 08:30N 35°29' E 139°39'0 0.0
2017-Sep-13 07:58N 35°29' E 139°39'0 0.0
2017-Sep-13 07:28N 35°29' E 139°39'0 0.0
2017-Sep-13 06:58N 35°29' E 139°39'0 0.0
2017-Sep-13 06:29N 35°29' E 139°39'0 0.0
2017-Sep-13 05:59N 35°29' E 139°39'0 0.0
2017-Sep-13 05:29N 35°29' E 139°39'0 0.0
2017-Sep-13 05:00N 35°29' E 139°39'0 0.0
2017-Sep-13 04:30N 35°29' E 139°39'0 0.0
2017-Sep-13 04:00N 35°29' E 139°39'0 0.0
2017-Sep-13 03:28N 35°29' E 139°39'0 0.0
2017-Sep-13 02:58N 35°29' E 139°39'0 0.0
2017-Sep-13 02:28N 35°29' E 139°39'0 0.0
2017-Sep-13 01:59N 35°29' E 139°39'0 0.0
2017-Sep-13 01:29N 35°29' E 139°39'0 0.0
2017-Sep-13 00:59N 35°29' E 139°39'0 0.0
2017-Sep-13 00:30N 35°29' E 139°39'0 0.0
2017-Sep-13 00:00N 35°29' E 139°39'0 0.0
2017-Sep-12 23:30N 35°29' E 139°39'0 0.0
2017-Sep-12 23:01N 35°29' E 139°39'0 0.0
2017-Sep-12 22:31N 35°29' E 139°39'0 0.0
2017-Sep-12 22:01N 35°29' E 139°39'2 3.3
2017-Sep-12 21:31N 35°27' E 139°40'4 8.0
2017-Sep-12 21:00N 35°24' E 139°43'510.0
2017-Sep-12 20:30N 35°19' E 139°43'611.8
2017-Sep-12 20:00N 35°14' E 139°47'712.9
2017-Sep-12 19:30N 35°08' E 139°45'713.4
2017-Sep-12 19:00N 35°02' E 139°41'714.7
2017-Sep-12 18:30N 34°58' E 139°33'713.9
2017-Sep-12 18:00N 34°52' E 139°28'  
Track history (hours):
 
Tides and Currents Weather Stations Pressure Air Temp Water Temp Dewpoint Dewpoint Depression Visibility Wind Speed Wind Dir Waves Ship Positions

Granada Carrier

Last reported at 2017-Sep-14 21:56 UTC. Time now 2017-Sep-24 15:52 UTC.
Position N 34°10' E 134°58'.
Warning: this ship's position is 9 days out of date.

Length 122 m; draft 5.3 m.

Type: Cargo ship. MMSI: 308462000.

Date/timePositionNaut miles runAvg speedWind from/ knotsBaromVisibWave heightAir tempDewpointWater temp
2017-Sep-14 21:56N 34°10' E 134°58'1417.0
2017-Sep-14 21:08N 34°23' E 135°01'416.4
2017-Sep-14 20:55N 34°26' E 135°03'716.8
2017-Sep-14 20:30N 34°32' E 135°06'815.0
2017-Sep-14 20:00N 34°39' E 135°11'1 1.8
2017-Sep-14 19:29N 34°40' E 135°11'0 0.0
2017-Sep-14 19:00N 34°40' E 135°11'0 0.0
2017-Sep-14 18:12N 34°40' E 135°11'0 0.0
2017-Sep-14 18:00N 34°40' E 135°11'0 0.0
2017-Sep-14 17:25N 34°40' E 135°11'0 0.0
2017-Sep-14 16:55N 34°40' E 135°11'0 0.0
2017-Sep-14 16:25N 34°40' E 135°11'0 0.0
2017-Sep-14 15:56N 34°40' E 135°11'0 0.0
2017-Sep-14 15:14N 34°40' E 135°11'0 0.0
2017-Sep-14 14:56N 34°40' E 135°11'0 0.0
2017-Sep-14 14:27N 34°40' E 135°11'0 0.0
2017-Sep-14 13:57N 34°40' E 135°11'0 0.0
2017-Sep-14 13:27N 34°40' E 135°11'0 0.0
2017-Sep-14 12:58N 34°40' E 135°11'0 0.0
2017-Sep-14 12:28N 34°40' E 135°11'0 0.0
2017-Sep-14 11:58N 34°40' E 135°11'0 0.0
2017-Sep-14 11:23N 34°40' E 135°11'0 0.0
2017-Sep-14 10:47N 34°40' E 135°11'0 0.0
2017-Sep-14 10:29N 34°40' E 135°11'0 0.0
2017-Sep-14 10:00N 34°40' E 135°11'0 0.0
2017-Sep-14 09:31N 34°40' E 135°11'2 4.5
2017-Sep-14 09:00N 34°37' E 135°11'714.8
2017-Sep-14 08:30N 34°31' E 135°07'1116.5
2017-Sep-14 07:52N 34°21' E 135°02'616.6
2017-Sep-14 07:30N 34°15' E 134°59'816.8
2017-Sep-14 07:00N 34°07' E 134°59'916.5
2017-Sep-14 06:29N 33°58' E 134°60'23013.1
2017-Sep-13 12:58N 34°58' E 139°29'715.3
2017-Sep-13 12:30N 35°02' E 139°36'815.8
2017-Sep-13 12:00N 35°07' E 139°44'714.6
2017-Sep-13 11:31N 35°14' E 139°46'611.8
2017-Sep-13 11:01N 35°19' E 139°43'612.7
2017-Sep-13 10:30N 35°25' E 139°43'4 8.6
2017-Sep-13 10:00N 35°29' E 139°39'0 0.2
2017-Sep-13 09:30N 35°29' E 139°39'0 0.0
2017-Sep-13 09:00N 35°29' E 139°39'0 0.0
2017-Sep-13 08:30N 35°29' E 139°39'0 0.0
2017-Sep-13 07:58N 35°29' E 139°39'0 0.0
2017-Sep-13 07:28N 35°29' E 139°39'0 0.0
2017-Sep-13 06:58N 35°29' E 139°39'0 0.0
2017-Sep-13 06:29N 35°29' E 139°39'0 0.0
2017-Sep-13 05:59N 35°29' E 139°39'0 0.0
2017-Sep-13 05:29N 35°29' E 139°39'0 0.0
2017-Sep-13 05:00N 35°29' E 139°39'0 0.0
2017-Sep-13 04:30N 35°29' E 139°39'0 0.0
2017-Sep-13 04:00N 35°29' E 139°39'0 0.0
2017-Sep-13 03:28N 35°29' E 139°39'0 0.0
2017-Sep-13 02:58N 35°29' E 139°39'0 0.0
2017-Sep-13 02:28N 35°29' E 139°39'0 0.0
2017-Sep-13 01:59N 35°29' E 139°39'0 0.0
2017-Sep-13 01:29N 35°29' E 139°39'0 0.0
2017-Sep-13 00:59N 35°29' E 139°39'0 0.0
2017-Sep-13 00:30N 35°29' E 139°39'0 0.0
2017-Sep-13 00:00N 35°29' E 139°39'0 0.0
2017-Sep-12 23:30N 35°29' E 139°39'0 0.0
2017-Sep-12 23:01N 35°29' E 139°39'0 0.0
2017-Sep-12 22:31N 35°29' E 139°39'0 0.0
2017-Sep-12 22:01N 35°29' E 139°39'2 3.3
2017-Sep-12 21:31N 35°27' E 139°40'4 8.0
2017-Sep-12 21:00N 35°24' E 139°43'510.0
2017-Sep-12 20:30N 35°19' E 139°43'611.8
2017-Sep-12 20:00N 35°14' E 139°47'712.9
2017-Sep-12 19:30N 35°08' E 139°45'713.4
2017-Sep-12 19:00N 35°02' E 139°41'714.7
2017-Sep-12 18:30N 34°58' E 139°33'713.9
2017-Sep-12 18:00N 34°52' E 139°28'  

Dump ship's entire track history